Time;durP1;ratioP1;P1;durP2;ratioP2;P2;SDS_P1;SDS_P2;PMS_P1;PMS_P2;Temp;Humidity;BMP_temperature;BMP_pressure;BME280_temperature;BME280_humidity;BME280_pressure;Samples;Min_cycle;Max_cycle;Signal;HPM_P1;HPM_P2
2023/10/03 00:00:34;;;;;;;5.32;1.50;;;;;;;;;;4978425;28;20080;-66
2023/10/03 00:03:04;;;;;;;4.05;1.63;;;;;;;;;;4979417;28;20038;-67
2023/10/03 00:05:34;;;;;;;5.13;1.42;;;;;;;;;;4981896;28;20042;-69
2023/10/03 00:08:04;;;;;;;6.18;1.40;;;;;;;;;;4993700;28;20042;-66
2023/10/03 00:10:38;;;;;;;3.58;1.27;;;;;;;;;;4976316;28;20041;-69
2023/10/03 00:13:08;;;;;;;5.20;2.03;;;;;;;;;;4980264;28;20038;-66
2023/10/03 00:15:39;;;;;;;3.60;1.65;;;;;;;;;;4979920;28;20641;-66
2023/10/03 00:18:05;;;;;;;3.60;1.48;;;;;;;;;;4980572;28;20072;-69
2023/10/03 00:20:32;;;;;;;7.38;2.50;;;;;;;;;;4980084;28;20582;-67
2023/10/03 00:22:59;;;;;;;3.63;1.20;;;;;;;;;;4980130;28;20121;-67
2023/10/03 00:25:25;;;;;;;7.38;1.85;;;;;;;;;;4978218;28;20074;-68
2023/10/03 00:27:54;;;;;;;4.43;2.08;;;;;;;;;;5011003;28;20038;-67
2023/10/03 00:30:24;;;;;;;3.13;1.30;;;;;;;;;;4977781;28;20054;-67
2023/10/03 00:32:51;;;;;;;3.88;1.20;;;;;;;;;;4979107;28;20058;-68
2023/10/03 00:35:20;;;;;;;5.95;1.30;;;;;;;;;;4977856;28;20066;-66
2023/10/03 00:37:48;;;;;;;3.33;1.10;;;;;;;;;;4978937;28;20061;-66
2023/10/03 00:40:27;;;;;;;3.70;1.48;;;;;;;;;;4994104;28;20054;-70
2023/10/03 00:43:01;;;;;;;3.80;1.38;;;;;;;;;;4973515;28;20136;-68
2023/10/03 00:45:30;;;;;;;4.78;2.08;;;;;;;;;;4979499;28;20544;-66
2023/10/03 00:48:01;;;;;;;11.60;6.60;;;;;;;;;;4978844;28;20042;-68
2023/10/03 00:50:29;;;;;;;4.97;1.80;;;;;;;;;;4976663;28;20064;-67
2023/10/03 00:53:08;;;;;;;3.72;1.45;;;;;;;;;;4982402;28;20042;-68
2023/10/03 00:55:36;;;;;;;4.65;1.52;;;;;;;;;;4985769;28;20619;-69
2023/10/03 01:00:45;;;;;;;8.63;2.20;;;;;;;;;;4978520;28;20450;-67
2023/10/03 01:03:31;;;;;;;5.10;2.13;;;;;;;;;;4979636;28;20436;-66
2023/10/03 01:06:02;;;;;;;6.63;3.10;;;;;;;;;;4978850;28;20038;-64
2023/10/03 01:08:31;;;;;;;7.20;2.60;;;;;;;;;;4978183;28;20046;-66
2023/10/03 01:11:02;;;;;;;5.25;2.35;;;;;;;;;;4992416;28;20053;-67
2023/10/03 01:13:29;;;;;;;7.18;2.30;;;;;;;;;;4978001;28;20045;-67
2023/10/03 01:15:56;;;;;;;4.25;1.92;;;;;;;;;;4978445;28;20375;-71
2023/10/03 01:18:26;;;;;;;4.68;2.22;;;;;;;;;;4976682;28;20046;-68
2023/10/03 01:21:00;;;;;;;4.72;2.15;;;;;;;;;;4976012;28;20041;-65
2023/10/03 01:23:30;;;;;;;6.35;2.53;;;;;;;;;;4977782;28;20052;-67
2023/10/03 01:25:56;;;;;;;7.07;2.80;;;;;;;;;;4976463;28;20033;-67
2023/10/03 01:28:23;;;;;;;5.15;2.47;;;;;;;;;;4977059;28;20050;-67
2023/10/03 01:30:51;;;;;;;5.32;2.38;;;;;;;;;;4992802;28;20104;-66
2023/10/03 01:33:18;;;;;;;8.25;2.80;;;;;;;;;;5012043;28;20050;-67
2023/10/03 01:35:44;;;;;;;7.13;2.63;;;;;;;;;;4991093;28;20054;-66
2023/10/03 01:38:14;;;;;;;6.85;2.65;;;;;;;;;;4977644;28;20442;-65
2023/10/03 01:40:41;;;;;;;11.73;3.50;;;;;;;;;;4991954;28;20045;-69
2023/10/03 01:43:07;;;;;;;6.20;3.28;;;;;;;;;;4967496;28;20069;-68
2023/10/03 01:45:34;;;;;;;6.00;2.80;;;;;;;;;;4986903;28;20120;-67
2023/10/03 01:48:04;;;;;;;6.57;2.97;;;;;;;;;;4989722;28;20037;-67
2023/10/03 01:50:33;;;;;;;8.00;3.13;;;;;;;;;;4977117;28;20046;-69
2023/10/03 01:53:00;;;;;;;6.25;2.90;;;;;;;;;;4982665;28;20486;-61
2023/10/03 01:55:27;;;;;;;7.38;3.25;;;;;;;;;;4977722;28;20100;-64
2023/10/03 01:57:53;;;;;;;5.78;2.90;;;;;;;;;;4976217;28;20061;-63
2023/10/03 02:02:50;;;;;;;5.40;2.55;;;;;;;;;;4985935;28;20038;-64
2023/10/03 02:05:21;;;;;;;7.68;2.78;;;;;;;;;;4979177;28;20045;-65
2023/10/03 02:07:48;;;;;;;7.97;3.17;;;;;;;;;;4976879;28;20557;-64
2023/10/03 02:10:15;;;;;;;9.02;2.75;;;;;;;;;;4974428;28;20038;-66
2023/10/03 02:12:48;;;;;;;5.38;2.30;;;;;;;;;;4974041;28;20042;-65
2023/10/03 02:15:14;;;;;;;;;;;;;;;;;;4977598;28;20046;-67
2023/10/03 02:17:41;;;;;;;6.13;2.92;;;;;;;;;;4976501;28;20370;-66
2023/10/03 02:20:16;;;;;;;6.70;2.70;;;;;;;;;;4974960;28;20617;-65
2023/10/03 02:22:42;;;;;;;7.15;2.67;;;;;;;;;;4976104;28;21478;-66
2023/10/03 02:25:09;;;;;;;6.88;2.60;;;;;;;;;;4991431;28;20034;-65
2023/10/03 02:27:36;;;;;;;8.52;2.60;;;;;;;;;;4996994;28;20053;-65
2023/10/03 02:30:12;;;;;;;6.10;2.40;;;;;;;;;;4978339;28;20074;-65
2023/10/03 02:32:39;;;;;;;7.00;2.60;;;;;;;;;;4997096;28;20038;-65
2023/10/03 02:35:06;;;;;;;9.90;2.95;;;;;;;;;;4992773;28;20053;-66
2023/10/03 02:37:34;;;;;;;7.30;2.80;;;;;;;;;;4976496;28;20037;-65
2023/10/03 02:40:01;;;;;;;5.88;2.47;;;;;;;;;;4976708;28;20038;-66
2023/10/03 02:42:28;;;;;;;10.10;2.70;;;;;;;;;;4975698;28;20060;-65
2023/10/03 02:44:54;;;;;;;4.97;2.28;;;;;;;;;;4977752;28;20085;-67
2023/10/03 02:47:21;;;;;;;7.07;2.80;;;;;;;;;;4983492;28;20044;-67
2023/10/03 02:49:49;;;;;;;8.48;2.67;;;;;;;;;;4988026;28;20100;-66
2023/10/03 02:52:36;;;;;;;7.43;2.75;;;;;;;;;;4994094;28;20092;-66
2023/10/03 02:55:02;;;;;;;13.02;3.35;;;;;;;;;;4977347;28;20076;-67
2023/10/03 02:57:29;;;;;;;7.43;3.33;;;;;;;;;;4997433;28;20496;-66
2023/10/03 02:59:56;;;;;;;7.47;3.03;;;;;;;;;;4997426;28;20148;-67
2023/10/03 03:02:22;;;;;;;6.47;3.00;;;;;;;;;;5014155;28;20228;-67
2023/10/03 03:04:49;;;;;;;6.88;2.80;;;;;;;;;;4995610;28;20029;-65
2023/10/03 03:07:18;;;;;;;7.50;2.97;;;;;;;;;;4996647;28;20352;-66
2023/10/03 03:09:45;;;;;;;8.68;2.80;;;;;;;;;;5013266;28;20566;-66
2023/10/03 03:12:13;;;;;;;7.60;2.78;;;;;;;;;;5013211;28;20458;-68
2023/10/03 03:14:40;;;;;;;10.45;3.08;;;;;;;;;;4976488;28;20650;-69
2023/10/03 03:17:13;;;;;;;11.25;2.92;;;;;;;;;;4997806;28;20046;-64
2023/10/03 03:19:40;;;;;;;7.63;2.95;;;;;;;;;;4995956;28;20634;-68
2023/10/03 03:22:09;;;;;;;7.65;3.33;;;;;;;;;;5012555;28;20046;-62
2023/10/03 03:24:36;;;;;;;7.60;3.28;;;;;;;;;;4989512;28;20300;-64
2023/10/03 03:27:26;;;;;;;8.02;3.05;;;;;;;;;;5033873;28;20064;-63
2023/10/03 03:32:38;;;;;;;6.60;3.20;;;;;;;;;;5036558;28;20216;-64
2023/10/03 03:35:06;;;;;;;6.28;3.30;;;;;;;;;;5036147;28;20289;-64
2023/10/03 03:37:37;;;;;;;7.25;3.05;;;;;;;;;;5034067;28;20041;-64
2023/10/03 03:40:12;;;;;;;5.80;2.75;;;;;;;;;;5035699;28;20047;-64
2023/10/03 03:42:40;;;;;;;10.02;3.30;;;;;;;;;;5036475;28;20044;-64
2023/10/03 03:45:07;;;;;;;5.45;2.90;;;;;;;;;;5036504;28;20033;-64
2023/10/03 03:47:34;;;;;;;7.47;3.00;;;;;;;;;;5036951;28;20044;-64
2023/10/03 03:50:10;;;;;;;5.60;2.90;;;;;;;;;;5035450;28;20405;-63
2023/10/03 03:52:40;;;;;;;7.05;2.80;;;;;;;;;;5035882;28;20048;-65
2023/10/03 03:55:08;;;;;;;5.55;2.80;;;;;;;;;;5036158;28;20048;-62
2023/10/03 03:57:35;;;;;;;10.07;3.35;;;;;;;;;;5031679;28;20409;-63
2023/10/03 04:00:14;;;;;;;7.53;3.17;;;;;;;;;;5010276;28;20087;-63
2023/10/03 04:02:41;;;;;;;8.65;3.38;;;;;;;;;;5035680;28;20060;-64
2023/10/03 04:05:08;;;;;;;6.10;2.92;;;;;;;;;;5007581;28;20042;-64
2023/10/03 04:07:38;;;;;;;5.63;2.63;;;;;;;;;;4979842;28;20042;-62
2023/10/03 04:10:13;;;;;;;5.78;3.05;;;;;;;;;;4980413;28;20049;-63
2023/10/03 04:12:43;;;;;;;5.53;3.28;;;;;;;;;;4995017;28;20049;-62
2023/10/03 04:15:13;;;;;;;5.65;2.83;;;;;;;;;;4980373;28;20125;-65
2023/10/03 04:17:43;;;;;;;5.80;3.00;;;;;;;;;;4977879;28;20518;-64
2023/10/03 04:20:53;;;;;;;9.40;3.35;;;;;;;;;;4994394;28;20072;-63
2023/10/03 04:23:00;;;;;;;5.97;3.40;;;;;;;;;;4981191;28;20376;-63
2023/10/03 04:25:27;;;;;;;6.18;3.10;;;;;;;;;;4981603;28;20065;-64
2023/10/03 04:27:54;;;;;;;8.15;3.60;;;;;;;;;;4978938;28;20181;-64
2023/10/03 04:30:25;;;;;;;5.70;3.03;;;;;;;;;;4978526;28;20058;-62
2023/10/03 04:32:52;;;;;;;6.60;2.78;;;;;;;;;;4978530;28;20045;-61
2023/10/03 04:35:19;;;;;;;6.78;3.13;;;;;;;;;;4980850;28;20568;-62
2023/10/03 04:37:46;;;;;;;7.20;2.58;;;;;;;;;;4979113;28;20424;-61
2023/10/03 04:40:35;;;;;;;6.97;2.90;;;;;;;;;;4979581;28;20722;-63
2023/10/03 04:43:08;;;;;;;7.85;2.90;;;;;;;;;;4984899;28;20049;-61
2023/10/03 04:45:39;;;;;;;8.05;2.60;;;;;;;;;;4977989;28;20061;-62
2023/10/03 04:48:05;;;;;;;7.57;3.10;;;;;;;;;;4976510;28;20181;-62
2023/10/03 04:50:34;;;;;;;6.70;2.88;;;;;;;;;;4978690;28;20049;-63
2023/10/03 04:53:02;;;;;;;6.40;3.25;;;;;;;;;;4978939;28;20046;-63
2023/10/03 04:55:28;;;;;;;5.60;2.83;;;;;;;;;;4978257;28;20042;-62
2023/10/03 04:57:55;;;;;;;6.78;2.92;;;;;;;;;;5010209;28;20048;-63
2023/10/03 05:00:25;;;;;;;6.43;3.50;;;;;;;;;;4978011;28;20073;-63
2023/10/03 05:02:52;;;;;;;7.78;3.20;;;;;;;;;;4985640;28;20035;-61
2023/10/03 05:05:20;;;;;;;8.50;3.35;;;;;;;;;;4979769;28;20050;-61
2023/10/03 05:07:48;;;;;;;7.50;3.50;;;;;;;;;;4978048;28;20120;-61
2023/10/03 05:10:15;;;;;;;10.15;3.72;;;;;;;;;;4977193;28;20030;-62
2023/10/03 05:12:45;;;;;;;7.05;3.45;;;;;;;;;;4977745;28;20042;-62
2023/10/03 05:15:12;;;;;;;7.72;3.30;;;;;;;;;;4978351;28;20072;-62
2023/10/03 05:17:39;;;;;;;6.93;3.30;;;;;;;;;;4978095;28;20548;-63
2023/10/03 05:20:06;;;;;;;8.88;3.80;;;;;;;;;;4978540;28;20050;-64
2023/10/03 05:22:33;;;;;;;7.28;3.50;;;;;;;;;;4988280;28;20111;-63
2023/10/03 05:25:03;;;;;;;8.57;3.33;;;;;;;;;;4992124;28;20034;-64
2023/10/03 05:27:32;;;;;;;5.93;3.30;;;;;;;;;;4977101;28;20096;-63
2023/10/03 05:30:01;;;;;;;10.20;3.80;;;;;;;;;;4977327;28;20522;-64
2023/10/03 05:32:28;;;;;;;6.05;3.50;;;;;;;;;;4978176;28;20448;-63
2023/10/03 05:34:55;;;;;;;9.48;3.60;;;;;;;;;;4979296;28;20037;-63
2023/10/03 05:37:22;;;;;;;6.43;3.35;;;;;;;;;;4978959;28;20041;-64
2023/10/03 05:39:49;;;;;;;9.52;3.45;;;;;;;;;;4970240;28;20422;-65
2023/10/03 05:42:17;;;;;;;6.50;3.53;;;;;;;;;;4975849;28;20380;-64
2023/10/03 05:44:47;;;;;;;9.25;3.70;;;;;;;;;;4977185;28;20385;-64
2023/10/03 05:47:14;;;;;;;9.20;3.65;;;;;;;;;;4978644;28;20073;-64
2023/10/03 05:49:43;;;;;;;8.38;3.67;;;;;;;;;;4975001;28;20803;-65
2023/10/03 05:52:10;;;;;;;9.55;4.00;;;;;;;;;;4978644;28;20138;-64
2023/10/03 05:54:37;;;;;;;9.18;3.67;;;;;;;;;;4978213;28;20035;-64
2023/10/03 05:57:03;;;;;;;7.20;3.80;;;;;;;;;;5010091;28;20140;-64
2023/10/03 05:59:30;;;;;;;8.70;3.55;;;;;;;;;;4976093;28;20066;-64
2023/10/03 06:01:58;;;;;;;7.95;4.10;;;;;;;;;;4978641;28;20038;-65
2023/10/03 06:04:26;;;;;;;14.02;4.15;;;;;;;;;;4979043;28;20523;-63
2023/10/03 06:06:54;;;;;;;9.60;3.80;;;;;;;;;;4977884;28;20123;-64
2023/10/03 06:09:21;;;;;;;8.25;3.95;;;;;;;;;;4977873;28;20309;-63
2023/10/03 06:11:48;;;;;;;10.43;4.40;;;;;;;;;;4977495;28;20811;-63
2023/10/03 06:14:15;;;;;;;8.05;4.13;;;;;;;;;;4978389;28;20034;-62
2023/10/03 06:16:42;;;;;;;10.45;4.63;;;;;;;;;;4978013;28;20030;-61
2023/10/03 06:19:10;;;;;;;7.05;3.90;;;;;;;;;;4979201;28;20054;-62
2023/10/03 06:21:55;;;;;;;9.43;4.25;;;;;;;;;;5014560;28;20563;-63
2023/10/03 06:24:25;;;;;;;7.88;4.15;;;;;;;;;;4997408;28;20312;-64
2023/10/03 06:26:51;;;;;;;8.80;4.25;;;;;;;;;;5016016;28;21630;-63
2023/10/03 06:29:20;;;;;;;9.18;4.07;;;;;;;;;;5002181;28;20053;-64
2023/10/03 06:31:47;;;;;;;7.97;4.32;;;;;;;;;;5018341;28;20214;-64
2023/10/03 06:34:15;;;;;;;7.97;4.43;;;;;;;;;;5018991;28;20049;-65
2023/10/03 06:36:41;;;;;;;8.57;4.15;;;;;;;;;;5016969;28;20052;-63
2023/10/03 06:39:09;;;;;;;8.25;3.70;;;;;;;;;;5019107;28;20076;-64
2023/10/03 06:41:38;;;;;;;11.40;4.95;;;;;;;;;;5000245;28;20563;-63
2023/10/03 06:44:04;;;;;;;10.43;4.13;;;;;;;;;;5001075;28;20179;-63
2023/10/03 06:46:32;;;;;;;10.55;4.13;;;;;;;;;;5018026;28;20074;-62
2023/10/03 06:48:58;;;;;;;8.82;4.43;;;;;;;;;;5018783;28;20033;-63
2023/10/03 06:51:25;;;;;;;9.45;4.50;;;;;;;;;;5018382;28;20150;-64
2023/10/03 06:53:52;;;;;;;7.60;4.25;;;;;;;;;;4991207;28;20172;-62
2023/10/03 06:56:20;;;;;;;7.80;3.78;;;;;;;;;;4982209;28;20038;-62
2023/10/03 06:58:47;;;;;;;6.30;3.70;;;;;;;;;;4990141;28;20145;-63
2023/10/03 07:01:13;;;;;;;8.98;3.97;;;;;;;;;;4996777;28;20089;-62
2023/10/03 07:03:40;;;;;;;9.82;4.03;;;;;;;;;;4981185;28;20198;-61
2023/10/03 07:06:07;;;;;;;8.63;4.22;;;;;;;;;;4982373;28;20069;-62
2023/10/03 07:08:35;;;;;;;9.70;4.28;;;;;;;;;;4980659;28;20031;-61
2023/10/03 07:11:02;;;;;;;6.40;3.80;;;;;;;;;;4984406;28;20049;-63
2023/10/03 07:13:29;;;;;;;7.78;4.07;;;;;;;;;;4983786;28;20064;-63
2023/10/03 07:15:58;;;;;;;9.35;4.07;;;;;;;;;;4982952;28;20407;-66
2023/10/03 07:18:25;;;;;;;10.10;3.88;;;;;;;;;;4980790;28;20061;-64
2023/10/03 07:20:52;;;;;;;9.00;3.97;;;;;;;;;;4993235;28;20069;-65
2023/10/03 07:23:19;;;;;;;10.93;4.30;;;;;;;;;;4970769;28;20034;-63
2023/10/03 07:25:46;;;;;;;8.93;3.95;;;;;;;;;;4973406;28;20078;-64
2023/10/03 07:28:14;;;;;;;10.48;4.32;;;;;;;;;;4979878;28;20373;-63
2023/10/03 07:30:41;;;;;;;7.28;4.10;;;;;;;;;;4980445;28;20407;-62
2023/10/03 07:33:09;;;;;;;8.75;4.28;;;;;;;;;;5012158;28;20046;-63
2023/10/03 07:35:37;;;;;;;7.82;3.67;;;;;;;;;;4980513;28;20198;-62
2023/10/03 07:38:04;;;;;;;7.93;3.88;;;;;;;;;;4980692;28;20151;-62
2023/10/03 07:40:30;;;;;;;7.50;3.40;;;;;;;;;;4980405;28;20042;-62
2023/10/03 07:42:57;;;;;;;5.85;3.00;;;;;;;;;;4980764;28;20046;-62
2023/10/03 07:45:24;;;;;;;6.53;3.25;;;;;;;;;;4979684;28;20591;-61
2023/10/03 07:47:50;;;;;;;9.70;3.58;;;;;;;;;;4980557;28;20507;-63
2023/10/03 07:50:18;;;;;;;7.22;2.88;;;;;;;;;;4979221;28;20479;-60
2023/10/03 07:52:48;;;;;;;5.75;3.20;;;;;;;;;;4994514;28;20033;-65
2023/10/03 07:55:15;;;;;;;7.15;3.65;;;;;;;;;;4980215;28;20108;-63
2023/10/03 07:57:42;;;;;;;9.57;3.80;;;;;;;;;;4978266;28;20042;-62
2023/10/03 08:00:11;;;;;;;6.55;3.60;;;;;;;;;;5011296;28;20046;-63
2023/10/03 08:02:43;;;;;;;7.60;3.30;;;;;;;;;;4979070;28;20042;-64
2023/10/03 08:05:11;;;;;;;7.90;3.20;;;;;;;;;;4994722;28;20129;-61
2023/10/03 08:07:38;;;;;;;5.68;3.13;;;;;;;;;;4993591;28;20042;-62
2023/10/03 08:10:05;;;;;;;7.93;3.80;;;;;;;;;;4978762;28;20038;-63
2023/10/03 08:12:37;;;;;;;6.45;3.50;;;;;;;;;;4977135;28;20049;-62
2023/10/03 08:15:16;;;;;;;6.95;3.17;;;;;;;;;;4979353;28;20071;-64
2023/10/03 08:17:44;;;;;;;6.85;2.88;;;;;;;;;;4978395;28;20100;-63
2023/10/03 08:20:14;;;;;;;7.75;3.08;;;;;;;;;;4995170;28;20663;-61
2023/10/03 08:22:50;;;;;;;7.55;3.28;;;;;;;;;;4980055;28;20116;-61
2023/10/03 08:25:18;;;;;;;5.88;3.10;;;;;;;;;;4980430;28;20509;-62
2023/10/03 08:27:46;;;;;;;6.28;3.10;;;;;;;;;;4976626;28;20164;-63
2023/10/03 08:30:25;;;;;;;5.72;2.83;;;;;;;;;;4979237;28;20068;-64
2023/10/03 08:32:54;;;;;;;6.40;3.10;;;;;;;;;;5017690;28;20042;-62
2023/10/03 08:35:34;;;;;;;6.30;3.28;;;;;;;;;;4982672;28;20038;-64
2023/10/03 08:38:04;;;;;;;9.82;2.90;;;;;;;;;;4979023;28;20062;-63
2023/10/03 08:40:41;;;;;;;7.32;3.05;;;;;;;;;;4977698;28;20046;-63
2023/10/03 08:43:08;;;;;;;7.47;3.50;;;;;;;;;;4979611;28;20084;-61
2023/10/03 08:45:39;;;;;;;7.72;3.08;;;;;;;;;;4979871;28;20045;-64
2023/10/03 08:48:06;;;;;;;7.63;3.28;;;;;;;;;;4980620;28;20338;-62
2023/10/03 08:50:39;;;;;;;9.98;5.07;;;;;;;;;;4979610;28;20034;-63
2023/10/03 08:56:08;;;;;;;9.15;3.45;;;;;;;;;;4990136;28;20030;-62
2023/10/03 08:58:35;;;;;;;6.50;3.20;;;;;;;;;;4978752;28;20054;-62
2023/10/03 09:01:02;;;;;;;11.50;4.40;;;;;;;;;;4978674;28;20049;-63
2023/10/03 09:03:47;;;;;;;20.67;9.52;;;;;;;;;;4980500;28;20057;-63
2023/10/03 09:06:19;;;;;;;11.85;6.63;;;;;;;;;;4992411;28;20046;-63
2023/10/03 09:08:51;;;;;;;9.43;5.15;;;;;;;;;;5000731;28;20514;-63
2023/10/03 09:11:20;;;;;;;8.13;3.88;;;;;;;;;;4977261;28;20042;-61
2023/10/03 09:13:51;;;;;;;8.50;3.90;;;;;;;;;;4977683;28;20579;-62
2023/10/03 09:16:19;;;;;;;7.18;3.58;;;;;;;;;;4981006;28;20108;-63
2023/10/03 09:18:52;;;;;;;8.40;3.30;;;;;;;;;;4978426;28;20058;-61
2023/10/03 09:21:27;;;;;;;7.80;3.50;;;;;;;;;;4978373;28;20042;-63
2023/10/03 09:24:09;;;;;;;7.65;3.53;;;;;;;;;;4994126;28;20042;-62
2023/10/03 09:26:46;;;;;;;9.23;3.60;;;;;;;;;;4982419;28;20156;-62
2023/10/03 09:29:29;;;;;;;9.65;3.42;;;;;;;;;;5012380;28;20054;-65
2023/10/03 09:31:59;;;;;;;7.05;3.30;;;;;;;;;;4996674;28;20483;-62
2023/10/03 09:34:32;;;;;;;9.15;4.10;;;;;;;;;;4978898;28;20050;-63
2023/10/03 09:37:02;;;;;;;8.15;4.68;;;;;;;;;;4979548;28;20042;-63
2023/10/03 09:39:48;;;;;;;10.30;4.80;;;;;;;;;;5008531;28;20054;-62
2023/10/03 09:42:24;;;;;;;13.88;4.60;;;;;;;;;;4977901;28;20044;-62
2023/10/03 09:45:06;;;;;;;10.27;3.95;;;;;;;;;;4985945;28;20042;-61
2023/10/03 09:47:35;;;;;;;10.82;3.83;;;;;;;;;;4992869;28;20104;-64
2023/10/03 09:50:06;;;;;;;7.15;3.85;;;;;;;;;;4979103;28;20046;-65
2023/10/03 09:52:33;;;;;;;10.20;3.78;;;;;;;;;;5011203;28;20038;-61
2023/10/03 09:55:17;;;;;;;16.73;4.10;;;;;;;;;;4979773;28;20038;-61
2023/10/03 09:57:52;;;;;;;7.03;3.90;;;;;;;;;;4977486;28;20113;-61
2023/10/03 10:00:40;;;;;;;7.93;3.72;;;;;;;;;;4977662;28;20459;-62
2023/10/03 10:03:13;;;;;;;9.02;3.72;;;;;;;;;;4980017;28;20589;-61
2023/10/03 10:06:00;;;;;;;10.27;4.03;;;;;;;;;;4979938;28;20489;-60
2023/10/03 10:08:27;;;;;;;9.70;3.78;;;;;;;;;;4985878;28;20128;-61
2023/10/03 10:11:10;;;;;;;7.70;3.63;;;;;;;;;;4979753;28;20034;-63
2023/10/03 10:13:41;;;;;;;8.50;3.73;;;;;;;;;;4978708;28;20537;-64
2023/10/03 10:16:07;;;;;;;9.70;3.83;;;;;;;;;;4978061;28;20049;-61
2023/10/03 10:18:46;;;;;;;8.95;3.97;;;;;;;;;;4974345;28;20088;-62
2023/10/03 10:21:23;;;;;;;7.57;3.78;;;;;;;;;;4993896;28;20121;-64
2023/10/03 10:24:09;;;;;;;6.68;3.53;;;;;;;;;;4984357;28;20088;-62
2023/10/03 10:26:35;;;;;;;10.18;3.90;;;;;;;;;;4971692;28;20238;-61
2023/10/03 10:29:08;;;;;;;8.05;3.75;;;;;;;;;;4978158;28;20100;-64
2023/10/03 10:31:52;;;;;;;6.68;3.60;;;;;;;;;;4975049;28;20042;-64
2023/10/03 10:34:21;;;;;;;;;;;;;;;;;;4975929;28;20042;-61
2023/10/03 10:37:18;;;;;;;8.30;3.28;;;;;;;;;;4977517;28;19917;-64
2023/10/03 10:39:53;;;;;;;9.68;3.53;;;;;;;;;;4972287;28;20133;-64
2023/10/03 10:42:24;;;;;;;6.47;2.47;;;;;;;;;;4977982;28;20103;-64
2023/10/03 10:45:20;;;;;;;6.13;3.00;;;;;;;;;;4995217;28;20049;-63
2023/10/03 10:47:51;;;;;;;6.00;2.55;;;;;;;;;;4978571;28;20038;-63
2023/10/03 10:50:21;;;;;;;8.77;4.30;;;;;;;;;;4978290;28;20054;-62
2023/10/03 10:52:53;;;;;;;11.82;3.28;;;;;;;;;;4988259;28;20460;-62
2023/10/03 10:55:23;;;;;;;8.23;3.22;;;;;;;;;;4977855;28;20273;-63
2023/10/03 10:58:03;;;;;;;7.05;3.13;;;;;;;;;;4975609;28;20042;-63
2023/10/03 11:00:33;;;;;;;6.35;3.30;;;;;;;;;;4976947;28;20955;-61
2023/10/03 11:03:02;;;;;;;10.23;3.20;;;;;;;;;;4991828;28;20387;-61
2023/10/03 11:05:45;;;;;;;8.15;2.50;;;;;;;;;;4977146;28;20089;-62
2023/10/03 11:08:14;;;;;;;8.90;2.88;;;;;;;;;;4975512;28;20759;-62
2023/10/03 11:10:52;;;;;;;4.90;2.28;;;;;;;;;;4979504;28;20095;-60
2023/10/03 11:13:19;;;;;;;8.00;2.50;;;;;;;;;;4981911;28;20046;-67
2023/10/03 11:15:52;;;;;;;5.50;2.42;;;;;;;;;;4983928;28;20061;-61
2023/10/03 11:18:18;;;;;;;;;;;;;;;;;;4997066;28;20062;-65
2023/10/03 11:20:47;;;;;;;5.43;2.50;;;;;;;;;;4981127;28;20635;-63
2023/10/03 11:23:18;;;;;;;5.57;2.72;;;;;;;;;;4983145;28;20042;-63
2023/10/03 11:25:57;;;;;;;5.13;2.50;;;;;;;;;;5021972;28;20095;-60
2023/10/03 11:28:29;;;;;;;5.82;2.65;;;;;;;;;;4995584;28;20042;-61
2023/10/03 11:31:01;;;;;;;6.53;2.30;;;;;;;;;;5010298;28;20077;-67
2023/10/03 11:33:28;;;;;;;7.00;2.70;;;;;;;;;;4986389;28;21411;-67
2023/10/03 11:35:55;;;;;;;6.78;2.58;;;;;;;;;;4987849;28;20373;-63
2023/10/03 11:38:22;;;;;;;8.10;2.28;;;;;;;;;;4982847;28;20636;-62
2023/10/03 11:40:49;;;;;;;4.57;2.33;;;;;;;;;;4982546;28;20037;-65
2023/10/03 11:43:23;;;;;;;5.22;2.50;;;;;;;;;;5012359;28;20524;-63
2023/10/03 11:45:56;;;;;;;4.93;2.53;;;;;;;;;;4981103;28;20125;-62
2023/10/03 11:48:22;;;;;;;6.78;2.75;;;;;;;;;;4979560;28;20038;-61
2023/10/03 11:50:50;;;;;;;9.23;2.85;;;;;;;;;;4980240;28;20086;-63
2023/10/03 11:53:18;;;;;;;8.27;2.75;;;;;;;;;;4981982;28;20974;-64
2023/10/03 11:55:45;;;;;;;7.10;2.55;;;;;;;;;;4982909;28;20038;-62
2023/10/03 11:58:12;;;;;;;5.97;2.75;;;;;;;;;;4981494;28;20045;-62
2023/10/03 12:00:45;;;;;;;6.15;2.60;;;;;;;;;;4979648;28;21342;-65
2023/10/03 12:03:31;;;;;;;6.55;2.63;;;;;;;;;;4982244;28;21471;-64
2023/10/03 12:05:58;;;;;;;5.22;2.40;;;;;;;;;;5016128;28;20510;-64
2023/10/03 12:08:25;;;;;;;6.53;2.67;;;;;;;;;;4995923;28;20042;-61
2023/10/03 12:10:51;;;;;;;9.45;2.67;;;;;;;;;;4992105;28;20046;-62
2023/10/03 12:13:18;;;;;;;8.10;2.80;;;;;;;;;;5012374;28;20074;-63
2023/10/03 12:15:46;;;;;;;10.32;2.80;;;;;;;;;;5016821;28;20566;-63
2023/10/03 12:18:15;;;;;;;6.97;2.50;;;;;;;;;;5015124;28;20492;-63
2023/10/03 12:20:44;;;;;;;9.32;2.88;;;;;;;;;;5031429;28;20033;-62
2023/10/03 12:23:10;;;;;;;6.07;2.80;;;;;;;;;;5016698;28;20045;-64
2023/10/03 12:25:37;;;;;;;8.80;2.90;;;;;;;;;;5033017;28;20215;-63
2023/10/03 12:28:04;;;;;;;5.07;2.50;;;;;;;;;;5015995;28;20041;-63
2023/10/03 12:30:31;;;;;;;6.10;2.50;;;;;;;;;;5014510;28;20038;-63
2023/10/03 12:32:58;;;;;;;7.63;2.45;;;;;;;;;;4997134;28;20059;-64
2023/10/03 12:35:24;;;;;;;8.82;2.97;;;;;;;;;;5010062;28;20163;-62
2023/10/03 12:37:51;;;;;;;7.35;2.40;;;;;;;;;;4987417;28;20038;-64
2023/10/03 12:40:19;;;;;;;8.57;2.70;;;;;;;;;;4977654;28;20054;-64
2023/10/03 12:42:50;;;;;;;6.32;2.92;;;;;;;;;;4983081;28;20037;-60
2023/10/03 12:45:18;;;;;;;8.52;2.70;;;;;;;;;;4981684;28;20049;-63
2023/10/03 12:47:48;;;;;;;6.18;2.75;;;;;;;;;;4977936;28;20043;-63
2023/10/03 12:50:23;;;;;;;9.60;2.60;;;;;;;;;;4983438;28;20045;-62
2023/10/03 12:52:53;;;;;;;6.50;3.03;;;;;;;;;;4978284;28;20408;-60
2023/10/03 12:55:20;;;;;;;5.90;2.55;;;;;;;;;;4976245;28;20125;-61
2023/10/03 12:57:48;;;;;;;6.10;2.50;;;;;;;;;;4976008;28;20049;-60
2023/10/03 13:00:19;;;;;;;9.38;2.50;;;;;;;;;;4974703;28;20096;-60
2023/10/03 13:02:46;;;;;;;7.82;2.53;;;;;;;;;;4976731;28;20060;-63
2023/10/03 13:05:13;;;;;;;11.70;3.22;;;;;;;;;;4993624;28;20034;-65
2023/10/03 13:07:40;;;;;;;4.85;2.20;;;;;;;;;;4973714;28;20149;-65
2023/10/03 13:10:07;;;;;;;4.40;2.00;;;;;;;;;;4974029;28;20039;-60
2023/10/03 13:12:34;;;;;;;7.18;2.38;;;;;;;;;;4971324;28;20044;-63
2023/10/03 13:15:02;;;;;;;5.05;2.10;;;;;;;;;;4997395;28;20101;-62
2023/10/03 13:17:29;;;;;;;7.47;2.00;;;;;;;;;;4989704;28;20034;-62
2023/10/03 13:19:56;;;;;;;4.82;1.90;;;;;;;;;;4976573;28;20081;-63
2023/10/03 13:22:25;;;;;;;5.57;1.90;;;;;;;;;;4978299;28;20132;-61
2023/10/03 13:24:52;;;;;;;4.57;1.70;;;;;;;;;;4978577;28;20120;-60
2023/10/03 13:27:19;;;;;;;6.78;2.17;;;;;;;;;;4977390;28;20565;-62
2023/10/03 13:29:46;;;;;;;4.65;1.92;;;;;;;;;;4976768;28;20046;-64
2023/10/03 13:32:16;;;;;;;4.88;1.67;;;;;;;;;;4974215;28;20037;-62
2023/10/03 13:34:43;;;;;;;6.57;1.90;;;;;;;;;;4977516;28;20439;-59
2023/10/03 13:37:10;;;;;;;8.77;1.80;;;;;;;;;;4992364;28;20061;-62
2023/10/03 13:39:39;;;;;;;5.15;1.90;;;;;;;;;;4977558;28;20053;-62
2023/10/03 13:42:07;;;;;;;5.15;2.13;;;;;;;;;;4977814;28;20366;-60
2023/10/03 13:44:35;;;;;;;4.90;1.95;;;;;;;;;;4976799;28;20541;-59
2023/10/03 13:47:03;;;;;;;6.32;2.08;;;;;;;;;;4976192;28;20041;-62
2023/10/03 13:49:30;;;;;;;4.60;1.88;;;;;;;;;;4977394;28;20042;-64
2023/10/03 13:51:56;;;;;;;7.00;1.98;;;;;;;;;;4977089;28;20749;-64
2023/10/03 13:54:24;;;;;;;3.60;1.60;;;;;;;;;;4974899;28;20141;-63
2023/10/03 13:56:52;;;;;;;8.05;1.60;;;;;;;;;;4978000;28;20068;-64
2023/10/03 13:59:18;;;;;;;6.40;1.77;;;;;;;;;;4972225;28;20093;-61
2023/10/03 14:01:45;;;;;;;4.05;1.60;;;;;;;;;;4977432;28;20046;-62
2023/10/03 14:04:12;;;;;;;4.75;1.95;;;;;;;;;;4975327;28;20527;-64
2023/10/03 14:06:39;;;;;;;3.67;1.52;;;;;;;;;;4978052;28;20869;-61
2023/10/03 14:09:09;;;;;;;5.13;1.50;;;;;;;;;;4979755;28;20894;-61
2023/10/03 14:11:36;;;;;;;7.20;1.70;;;;;;;;;;4975352;28;20084;-64
2023/10/03 14:14:03;;;;;;;4.60;1.77;;;;;;;;;;4977538;28;20112;-61
2023/10/03 14:16:31;;;;;;;3.88;1.52;;;;;;;;;;4974284;28;20044;-61
2023/10/03 14:18:58;;;;;;;3.50;1.55;;;;;;;;;;4975248;28;20105;-62
2023/10/03 14:21:27;;;;;;;4.60;1.40;;;;;;;;;;4976687;28;20038;-64
2023/10/03 14:23:55;;;;;;;4.22;1.77;;;;;;;;;;4975757;28;20495;-61
2023/10/03 14:26:23;;;;;;;6.85;1.83;;;;;;;;;;4976404;28;20572;-61
2023/10/03 14:28:49;;;;;;;7.03;1.70;;;;;;;;;;4976393;28;20080;-63
2023/10/03 14:31:16;;;;;;;3.92;1.70;;;;;;;;;;4984983;28;20820;-59
2023/10/03 14:33:43;;;;;;;5.85;1.80;;;;;;;;;;4976625;28;20123;-62
2023/10/03 14:36:12;;;;;;;6.18;1.70;;;;;;;;;;4976649;28;20039;-62
2023/10/03 14:38:38;;;;;;;3.45;1.33;;;;;;;;;;4977919;28;20204;-63
2023/10/03 14:41:05;;;;;;;10.93;2.00;;;;;;;;;;4977684;28;20407;-61
2023/10/03 14:43:38;;;;;;;7.22;1.88;;;;;;;;;;4977610;28;20092;-60
2023/10/03 14:46:06;;;;;;;5.97;1.63;;;;;;;;;;4982666;28;20038;-63
2023/10/03 14:48:33;;;;;;;3.65;1.40;;;;;;;;;;4981855;28;20152;-63
2023/10/03 14:50:59;;;;;;;4.57;1.63;;;;;;;;;;4980042;28;20128;-63
2023/10/03 14:53:26;;;;;;;7.20;1.50;;;;;;;;;;4981744;28;20046;-63
2023/10/03 14:55:53;;;;;;;3.83;1.73;;;;;;;;;;4980647;28;20483;-63
2023/10/03 14:58:21;;;;;;;4.78;1.30;;;;;;;;;;4979516;28;20038;-61
2023/10/03 15:00:47;;;;;;;5.45;1.42;;;;;;;;;;4979877;28;20121;-62
2023/10/03 15:03:14;;;;;;;3.53;1.40;;;;;;;;;;4979482;28;21738;-62
2023/10/03 15:05:44;;;;;;;6.28;1.67;;;;;;;;;;4979198;28;20581;-60
2023/10/03 15:08:11;;;;;;;10.20;1.63;;;;;;;;;;4981157;28;20161;-62